South Lake Tahoe, CA

11:33 AM PST on December 20, 2014 (GMT -0800)
ShadyPines | Change Station
CLOSE
Current Station
Personal Weather Station
Location: South Lake Tahoe, CA
Elevation: 6375 ft
Nearby Weather Stations

Elev 6375 ft 38.86 °N, 120.03 °W | Updated 13 minutes ago

Overcast
Overcast
35.6 °F
Feels Like 36 °F
N
0.0
Wind Variable Wind from East
Gusts 7.0 mph

Today
High -- | Low -- °F
--% Chance of Precip.
Yesterday
High -- | Low -- °F
Precip. -- in
7:14 AM 4:41 PM
Waning Crescent, 2% visible
Pressure 30.16 in
Visibility 10.0 miles
Clouds Mostly Cloudy 2700 ft
Mostly Cloudy 3600 ft
Overcast 10000 ft
Windchill 36 °F
Dew Point 34 °F
Humidity 94%
Rainfall 0.14 in
Snow Depth Not available.
UV 1 out of 12
Pollen 1.70 out of 12
Air Quality Not available.
Flu Activity Not available.
SPECI KTVL 201907Z AUTO 21009KT 10SM -RA BKN027 BKN036 OVC100 04/01 A3016 RMK AO2 P0000 T00390006

More Conditions Fewer Conditions

Pressure 30.16 in
Visibility 10.0 miles
Clouds Mostly Cloudy 2700 ft
Mostly Cloudy 3600 ft
Overcast 10000 ft
Windchill 36 °F
Dew Point 34 °F
Humidity 94%
Rainfall 0.14 in
Snow Depth Not available.
UV 1 out of 12
Pollen 1.70 out of 12
Air Quality Not available.
Flu Activity Not available.
SPECI KTVL 201907Z AUTO 21009KT 10SM -RA BKN027 BKN036 OVC100 04/01 A3016 RMK AO2 P0000 T00390006

More Conditions Fewer Conditions

10-Day Weather Forecast

Almanac

Astronomy

Dec. 20, 2014 Rise Set
Actual Time
Civil Twilight
Nautical Twilight
Astronomical Twilight
Moon
Length of Visible Light
Length of Day
Tomorrow will be .
, % of the Moon is Illuminated

Today's Extremes

State Highs State Lows

Community

WunderPhotos

Upload Photos

1,779,257 photos uploaded!

WunderBlogs® & News

Nearby

Air Quality

  Air Quality AQ Index Pollutant
Not available.

Snow Depth

Station Depth Elevation

Earthquake Activity

City Distance Mag. Time & Date
Minimum magnitude displayed is 2.5.

Coastal Water Temperatures

Place Temperature

Nearby Weather Stations